sensor_id;sensor_type;location;lat;lon;timestamp;temperature;humidity
44219;DHT22;29889;52.034;5.570;2022-09-09T00:00:17;22.10;99.90
44219;DHT22;29889;52.034;5.570;2022-09-09T00:00:55;22.10;99.90
44219;DHT22;29889;52.034;5.570;2022-09-09T00:02:28;22.10;99.90
44219;DHT22;29889;52.034;5.570;2022-09-09T00:03:02;22.10;99.90
44219;DHT22;29889;52.034;5.570;2022-09-09T00:03:45;22.10;99.90
44219;DHT22;29889;52.034;5.570;2022-09-09T00:04:26;22.10;99.90
44219;DHT22;29889;52.034;5.570;2022-09-09T00:05:31;22.10;99.90
44219;DHT22;29889;52.034;5.570;2022-09-09T00:07:47;22.10;99.90
44219;DHT22;29889;52.034;5.570;2022-09-09T00:08:21;22.10;99.90
44219;DHT22;29889;52.034;5.570;2022-09-09T00:09:05;22.10;99.90
44219;DHT22;29889;52.034;5.570;2022-09-09T00:09:57;22.10;99.90
44219;DHT22;29889;52.034;5.570;2022-09-09T00:10:40;22.10;99.90
44219;DHT22;29889;52.034;5.570;2022-09-09T00:11:13;22.10;99.90
44219;DHT22;29889;52.034;5.570;2022-09-09T00:11:52;22.10;99.90
44219;DHT22;29889;52.034;5.570;2022-09-09T00:13:12;22.10;99.90
44219;DHT22;29889;52.034;5.570;2022-09-09T00:13:48;22.10;99.90
44219;DHT22;29889;52.034;5.570;2022-09-09T00:14:35;22.10;99.90
44219;DHT22;29889;52.034;5.570;2022-09-09T00:15:19;22.10;99.90
44219;DHT22;29889;52.034;5.570;2022-09-09T00:16:12;22.10;99.90
44219;DHT22;29889;52.034;5.570;2022-09-09T00:16:52;22.10;99.90
44219;DHT22;29889;52.034;5.570;2022-09-09T00:17:38;22.00;99.90
44219;DHT22;29889;52.034;5.570;2022-09-09T00:19:03;22.00;99.90
44219;DHT22;29889;52.034;5.570;2022-09-09T00:20:32;22.00;99.90
44219;DHT22;29889;52.034;5.570;2022-09-09T00:21:11;22.00;99.90
44219;DHT22;29889;52.034;5.570;2022-09-09T00:22:12;22.00;99.90
44219;DHT22;29889;52.034;5.570;2022-09-09T00:22:50;22.00;99.90
44219;DHT22;29889;52.034;5.570;2022-09-09T00:23:28;22.00;99.90
44219;DHT22;29889;52.034;5.570;2022-09-09T00:24:08;22.00;99.90
44219;DHT22;29889;52.034;5.570;2022-09-09T00:24:46;22.00;99.90
44219;DHT22;29889;52.034;5.570;2022-09-09T00:25:39;22.00;99.90
44219;DHT22;29889;52.034;5.570;2022-09-09T00:27:06;22.00;99.90
44219;DHT22;29889;52.034;5.570;2022-09-09T00:27:44;22.00;99.90
44219;DHT22;29889;52.034;5.570;2022-09-09T00:28:20;22.00;99.90
44219;DHT22;29889;52.034;5.570;2022-09-09T00:29:50;22.00;99.90
44219;DHT22;29889;52.034;5.570;2022-09-09T00:30:26;22.00;99.90
44219;DHT22;29889;52.034;5.570;2022-09-09T00:31:00;22.00;99.90
44219;DHT22;29889;52.034;5.570;2022-09-09T00:31:38;22.00;99.90
44219;DHT22;29889;52.034;5.570;2022-09-09T00:32:13;22.00;99.90
44219;DHT22;29889;52.034;5.570;2022-09-09T00:32:44;22.00;99.90
44219;DHT22;29889;52.034;5.570;2022-09-09T00:33:18;22.00;99.90
44219;DHT22;29889;52.034;5.570;2022-09-09T00:33:53;22.00;99.90
44219;DHT22;29889;52.034;5.570;2022-09-09T00:34:25;21.90;99.90
44219;DHT22;29889;52.034;5.570;2022-09-09T00:35:02;21.90;99.90
44219;DHT22;29889;52.034;5.570;2022-09-09T00:35:38;21.90;99.90
44219;DHT22;29889;52.034;5.570;2022-09-09T00:36:16;21.90;99.90
44219;DHT22;29889;52.034;5.570;2022-09-09T00:36:50;21.90;99.90
44219;DHT22;29889;52.034;5.570;2022-09-09T00:37:24;21.90;99.90
44219;DHT22;29889;52.034;5.570;2022-09-09T00:38:01;21.90;99.90
44219;DHT22;29889;52.034;5.570;2022-09-09T00:38:36;21.90;99.90
44219;DHT22;29889;52.034;5.570;2022-09-09T00:39:59;21.90;99.90
44219;DHT22;29889;52.034;5.570;2022-09-09T00:40:35;21.90;99.90
44219;DHT22;29889;52.034;5.570;2022-09-09T00:42:44;21.90;99.90
44219;DHT22;29889;52.034;5.570;2022-09-09T00:43:21;21.90;99.90
44219;DHT22;29889;52.034;5.570;2022-09-09T00:45:43;21.90;99.90
44219;DHT22;29889;52.034;5.570;2022-09-09T00:47:39;21.90;99.90
44219;DHT22;29889;52.034;5.570;2022-09-09T00:48:11;21.90;99.90
44219;DHT22;29889;52.034;5.570;2022-09-09T00:50:00;21.90;99.90
44219;DHT22;29889;52.034;5.570;2022-09-09T00:50:44;21.90;99.90
44219;DHT22;29889;52.034;5.570;2022-09-09T00:56:15;21.90;99.90
44219;DHT22;29889;52.034;5.570;2022-09-09T00:57:16;21.90;99.90
44219;DHT22;29889;52.034;5.570;2022-09-09T00:57:52;21.90;99.90
44219;DHT22;29889;52.034;5.570;2022-09-09T00:58:22;21.90;99.90
44219;DHT22;29889;52.034;5.570;2022-09-09T00:59:24;21.90;99.90
44219;DHT22;29889;52.034;5.570;2022-09-09T01:00:18;21.90;99.90
44219;DHT22;29889;52.034;5.570;2022-09-09T01:00:57;21.80;99.90
44219;DHT22;29889;52.034;5.570;2022-09-09T01:01:28;21.80;99.90
44219;DHT22;29889;52.034;5.570;2022-09-09T01:01:59;21.90;99.90
44219;DHT22;29889;52.034;5.570;2022-09-09T01:02:36;21.80;99.90
44219;DHT22;29889;52.034;5.570;2022-09-09T01:03:19;21.80;99.90
44219;DHT22;29889;52.034;5.570;2022-09-09T01:03:56;21.80;99.90
44219;DHT22;29889;52.034;5.570;2022-09-09T01:04:33;21.80;99.90
44219;DHT22;29889;52.034;5.570;2022-09-09T01:05:13;21.80;99.90
44219;DHT22;29889;52.034;5.570;2022-09-09T01:05:50;21.80;99.90
44219;DHT22;29889;52.034;5.570;2022-09-09T01:06:33;21.80;99.90
44219;DHT22;29889;52.034;5.570;2022-09-09T01:07:16;21.80;99.90
44219;DHT22;29889;52.034;5.570;2022-09-09T01:07:49;21.80;99.90
44219;DHT22;29889;52.034;5.570;2022-09-09T01:09:58;21.80;99.90
44219;DHT22;29889;52.034;5.570;2022-09-09T01:11:43;21.80;99.90
44219;DHT22;29889;52.034;5.570;2022-09-09T01:12:25;21.80;99.90
44219;DHT22;29889;52.034;5.570;2022-09-09T01:12:58;21.80;99.90
44219;DHT22;29889;52.034;5.570;2022-09-09T01:13:33;21.80;99.90
44219;DHT22;29889;52.034;5.570;2022-09-09T01:14:23;21.80;99.90
44219;DHT22;29889;52.034;5.570;2022-09-09T01:15:07;21.80;99.90
44219;DHT22;29889;52.034;5.570;2022-09-09T01:15:40;21.80;99.90
44219;DHT22;29889;52.034;5.570;2022-09-09T01:16:12;21.70;99.90
44219;DHT22;29889;52.034;5.570;2022-09-09T01:16:43;21.70;99.90
44219;DHT22;29889;52.034;5.570;2022-09-09T01:17:21;21.70;99.90
44219;DHT22;29889;52.034;5.570;2022-09-09T01:18:03;21.70;99.90
44219;DHT22;29889;52.034;5.570;2022-09-09T01:18:45;21.70;99.90
44219;DHT22;29889;52.034;5.570;2022-09-09T01:19:27;21.70;99.90
44219;DHT22;29889;52.034;5.570;2022-09-09T01:20:30;21.70;99.90
44219;DHT22;29889;52.034;5.570;2022-09-09T01:21:15;21.70;99.90
44219;DHT22;29889;52.034;5.570;2022-09-09T01:24:54;21.70;99.90
44219;DHT22;29889;52.034;5.570;2022-09-09T01:25:30;21.70;99.90
44219;DHT22;29889;52.034;5.570;2022-09-09T01:26:26;21.70;99.90
44219;DHT22;29889;52.034;5.570;2022-09-09T01:27:01;21.80;99.90
44219;DHT22;29889;52.034;5.570;2022-09-09T01:27:33;21.80;99.90
44219;DHT22;29889;52.034;5.570;2022-09-09T01:28:08;21.80;99.90
44219;DHT22;29889;52.034;5.570;2022-09-09T01:28:45;21.80;99.90
44219;DHT22;29889;52.034;5.570;2022-09-09T01:29:18;21.80;99.90
44219;DHT22;29889;52.034;5.570;2022-09-09T01:29:50;21.80;99.90
44219;DHT22;29889;52.034;5.570;2022-09-09T01:30:22;21.80;99.90
44219;DHT22;29889;52.034;5.570;2022-09-09T01:30:53;21.80;99.90
44219;DHT22;29889;52.034;5.570;2022-09-09T01:31:37;21.80;99.90
44219;DHT22;29889;52.034;5.570;2022-09-09T01:32:40;21.80;99.90
44219;DHT22;29889;52.034;5.570;2022-09-09T01:33:14;21.80;99.90
44219;DHT22;29889;52.034;5.570;2022-09-09T01:33:45;21.80;99.90
44219;DHT22;29889;52.034;5.570;2022-09-09T01:34:16;21.80;99.90
44219;DHT22;29889;52.034;5.570;2022-09-09T01:34:46;21.80;99.90
44219;DHT22;29889;52.034;5.570;2022-09-09T01:36:21;21.80;99.90
44219;DHT22;29889;52.034;5.570;2022-09-09T01:37:31;21.80;99.90
44219;DHT22;29889;52.034;5.570;2022-09-09T01:38:01;21.80;99.90
44219;DHT22;29889;52.034;5.570;2022-09-09T01:38:32;21.80;99.90
44219;DHT22;29889;52.034;5.570;2022-09-09T01:39:03;21.80;99.90
44219;DHT22;29889;52.034;5.570;2022-09-09T01:39:35;21.80;99.90
44219;DHT22;29889;52.034;5.570;2022-09-09T01:40:07;21.80;99.90
44219;DHT22;29889;52.034;5.570;2022-09-09T01:40:38;21.70;99.90
44219;DHT22;29889;52.034;5.570;2022-09-09T01:41:08;21.70;99.90
44219;DHT22;29889;52.034;5.570;2022-09-09T01:41:39;21.70;99.90
44219;DHT22;29889;52.034;5.570;2022-09-09T01:42:13;21.70;99.90
44219;DHT22;29889;52.034;5.570;2022-09-09T01:42:45;21.70;99.90
44219;DHT22;29889;52.034;5.570;2022-09-09T01:43:16;21.70;99.90
44219;DHT22;29889;52.034;5.570;2022-09-09T01:43:47;21.70;99.90
44219;DHT22;29889;52.034;5.570;2022-09-09T01:44:19;21.70;99.90
44219;DHT22;29889;52.034;5.570;2022-09-09T01:44:49;21.70;99.90
44219;DHT22;29889;52.034;5.570;2022-09-09T01:45:21;21.70;99.90
44219;DHT22;29889;52.034;5.570;2022-09-09T01:45:55;21.70;99.90
44219;DHT22;29889;52.034;5.570;2022-09-09T01:46:27;21.70;99.90
44219;DHT22;29889;52.034;5.570;2022-09-09T01:46:58;21.70;99.90
44219;DHT22;29889;52.034;5.570;2022-09-09T01:47:29;21.70;99.90
44219;DHT22;29889;52.034;5.570;2022-09-09T01:48:00;21.70;99.90
44219;DHT22;29889;52.034;5.570;2022-09-09T01:48:32;21.70;99.90
44219;DHT22;29889;52.034;5.570;2022-09-09T01:49:05;21.70;99.90
44219;DHT22;29889;52.034;5.570;2022-09-09T01:49:37;21.70;99.90
44219;DHT22;29889;52.034;5.570;2022-09-09T01:50:10;21.70;99.90
44219;DHT22;29889;52.034;5.570;2022-09-09T01:50:41;21.70;99.90
44219;DHT22;29889;52.034;5.570;2022-09-09T01:51:12;21.70;99.90
44219;DHT22;29889;52.034;5.570;2022-09-09T01:51:43;21.70;99.90
44219;DHT22;29889;52.034;5.570;2022-09-09T01:52:16;21.70;99.90
44219;DHT22;29889;52.034;5.570;2022-09-09T01:52:50;21.70;99.90
44219;DHT22;29889;52.034;5.570;2022-09-09T01:53:23;21.70;99.90
44219;DHT22;29889;52.034;5.570;2022-09-09T01:53:54;21.60;99.90
44219;DHT22;29889;52.034;5.570;2022-09-09T01:54:27;21.70;99.90
44219;DHT22;29889;52.034;5.570;2022-09-09T01:54:59;21.70;99.90
44219;DHT22;29889;52.034;5.570;2022-09-09T01:55:33;21.70;99.90
44219;DHT22;29889;52.034;5.570;2022-09-09T01:57:24;21.60;99.90
44219;DHT22;29889;52.034;5.570;2022-09-09T01:59:07;21.60;99.90
44219;DHT22;29889;52.034;5.570;2022-09-09T02:00:06;21.60;99.90
44219;DHT22;29889;52.034;5.570;2022-09-09T02:00:48;21.60;99.90
44219;DHT22;29889;52.034;5.570;2022-09-09T02:01:47;21.60;99.90
44219;DHT22;29889;52.034;5.570;2022-09-09T02:03:28;21.60;99.90
44219;DHT22;29889;52.034;5.570;2022-09-09T02:04:03;21.60;99.90
44219;DHT22;29889;52.034;5.570;2022-09-09T02:04:49;21.60;99.90
44219;DHT22;29889;52.034;5.570;2022-09-09T02:05:35;21.60;99.90
44219;DHT22;29889;52.034;5.570;2022-09-09T02:06:55;21.60;99.90
44219;DHT22;29889;52.034;5.570;2022-09-09T02:08:08;21.60;99.90
44219;DHT22;29889;52.034;5.570;2022-09-09T02:08:45;21.60;99.90
44219;DHT22;29889;52.034;5.570;2022-09-09T02:09:19;21.60;99.90
44219;DHT22;29889;52.034;5.570;2022-09-09T02:10:01;21.60;99.90
44219;DHT22;29889;52.034;5.570;2022-09-09T02:11:08;21.60;99.90
44219;DHT22;29889;52.034;5.570;2022-09-09T02:11:43;21.60;99.90
44219;DHT22;29889;52.034;5.570;2022-09-09T02:12:16;21.60;99.90
44219;DHT22;29889;52.034;5.570;2022-09-09T02:12:55;21.60;99.90
44219;DHT22;29889;52.034;5.570;2022-09-09T02:13:26;21.60;99.90
44219;DHT22;29889;52.034;5.570;2022-09-09T02:14:19;21.60;99.90
44219;DHT22;29889;52.034;5.570;2022-09-09T02:14:56;21.60;99.90
44219;DHT22;29889;52.034;5.570;2022-09-09T02:15:34;21.60;99.90
44219;DHT22;29889;52.034;5.570;2022-09-09T02:16:35;21.60;99.90
44219;DHT22;29889;52.034;5.570;2022-09-09T02:17:10;21.60;99.90
44219;DHT22;29889;52.034;5.570;2022-09-09T02:17:42;21.60;99.90
44219;DHT22;29889;52.034;5.570;2022-09-09T02:18:20;21.60;99.90
44219;DHT22;29889;52.034;5.570;2022-09-09T02:19:32;21.60;99.90
44219;DHT22;29889;52.034;5.570;2022-09-09T02:20:08;21.60;99.90
44219;DHT22;29889;52.034;5.570;2022-09-09T02:20:40;21.60;99.90
44219;DHT22;29889;52.034;5.570;2022-09-09T02:21:13;21.50;99.90
44219;DHT22;29889;52.034;5.570;2022-09-09T02:21:45;21.50;99.90
44219;DHT22;29889;52.034;5.570;2022-09-09T02:22:19;21.50;99.90
44219;DHT22;29889;52.034;5.570;2022-09-09T02:22:52;21.50;99.90
44219;DHT22;29889;52.034;5.570;2022-09-09T02:23:24;21.50;99.90
44219;DHT22;29889;52.034;5.570;2022-09-09T02:23:57;21.50;99.90
44219;DHT22;29889;52.034;5.570;2022-09-09T02:24:30;21.50;99.90
44219;DHT22;29889;52.034;5.570;2022-09-09T02:25:03;21.50;99.90
44219;DHT22;29889;52.034;5.570;2022-09-09T02:25:36;21.50;99.90
44219;DHT22;29889;52.034;5.570;2022-09-09T02:26:08;21.50;99.90
44219;DHT22;29889;52.034;5.570;2022-09-09T02:26:42;21.50;99.90
44219;DHT22;29889;52.034;5.570;2022-09-09T02:27:14;21.50;99.90
44219;DHT22;29889;52.034;5.570;2022-09-09T02:27:48;21.50;99.90
44219;DHT22;29889;52.034;5.570;2022-09-09T02:28:21;21.50;99.90
44219;DHT22;29889;52.034;5.570;2022-09-09T02:28:56;21.50;99.90
44219;DHT22;29889;52.034;5.570;2022-09-09T02:29:34;21.50;99.90
44219;DHT22;29889;52.034;5.570;2022-09-09T02:30:06;21.50;99.90
44219;DHT22;29889;52.034;5.570;2022-09-09T02:30:38;21.50;99.90
44219;DHT22;29889;52.034;5.570;2022-09-09T02:31:10;21.50;99.90
44219;DHT22;29889;52.034;5.570;2022-09-09T02:31:42;21.50;99.90
44219;DHT22;29889;52.034;5.570;2022-09-09T02:32:23;21.50;99.90
44219;DHT22;29889;52.034;5.570;2022-09-09T02:32:56;21.50;99.90
44219;DHT22;29889;52.034;5.570;2022-09-09T02:33:33;21.50;99.90
44219;DHT22;29889;52.034;5.570;2022-09-09T02:34:05;21.50;99.90
44219;DHT22;29889;52.034;5.570;2022-09-09T02:34:47;21.50;99.90
44219;DHT22;29889;52.034;5.570;2022-09-09T02:35:23;21.50;99.90
44219;DHT22;29889;52.034;5.570;2022-09-09T02:35:55;21.50;99.90
44219;DHT22;29889;52.034;5.570;2022-09-09T02:36:33;21.50;99.90
44219;DHT22;29889;52.034;5.570;2022-09-09T02:37:06;21.40;99.90
44219;DHT22;29889;52.034;5.570;2022-09-09T02:37:39;21.40;99.90
44219;DHT22;29889;52.034;5.570;2022-09-09T02:38:12;21.40;99.90
44219;DHT22;29889;52.034;5.570;2022-09-09T02:38:46;21.40;99.90
44219;DHT22;29889;52.034;5.570;2022-09-09T02:39:20;21.40;99.90
44219;DHT22;29889;52.034;5.570;2022-09-09T02:39:51;21.40;99.90
44219;DHT22;29889;52.034;5.570;2022-09-09T02:40:22;21.40;99.90
44219;DHT22;29889;52.034;5.570;2022-09-09T02:40:52;21.40;99.90
44219;DHT22;29889;52.034;5.570;2022-09-09T02:41:27;21.40;99.90
44219;DHT22;29889;52.034;5.570;2022-09-09T02:41:59;21.40;99.90
44219;DHT22;29889;52.034;5.570;2022-09-09T02:42:30;21.40;99.90
44219;DHT22;29889;52.034;5.570;2022-09-09T02:43:01;21.40;99.90
44219;DHT22;29889;52.034;5.570;2022-09-09T02:43:34;21.40;99.90
44219;DHT22;29889;52.034;5.570;2022-09-09T02:44:15;21.40;99.90
44219;DHT22;29889;52.034;5.570;2022-09-09T02:44:47;21.40;99.90
44219;DHT22;29889;52.034;5.570;2022-09-09T02:45:24;21.40;99.90
44219;DHT22;29889;52.034;5.570;2022-09-09T02:46:15;21.40;99.90
44219;DHT22;29889;52.034;5.570;2022-09-09T02:47:38;21.40;99.90
44219;DHT22;29889;52.034;5.570;2022-09-09T02:48:18;21.40;99.90
44219;DHT22;29889;52.034;5.570;2022-09-09T02:49:09;21.40;99.90
44219;DHT22;29889;52.034;5.570;2022-09-09T02:50:51;21.40;99.90
44219;DHT22;29889;52.034;5.570;2022-09-09T02:51:31;21.40;99.90
44219;DHT22;29889;52.034;5.570;2022-09-09T02:52:06;21.40;99.90
44219;DHT22;29889;52.034;5.570;2022-09-09T02:53:48;21.40;99.90
44219;DHT22;29889;52.034;5.570;2022-09-09T02:54:30;21.40;99.90
44219;DHT22;29889;52.034;5.570;2022-09-09T02:55:09;21.40;99.90
44219;DHT22;29889;52.034;5.570;2022-09-09T02:56:10;21.40;99.90
44219;DHT22;29889;52.034;5.570;2022-09-09T02:56:52;21.40;99.90
44219;DHT22;29889;52.034;5.570;2022-09-09T02:57:27;21.40;99.90
44219;DHT22;29889;52.034;5.570;2022-09-09T02:57:59;21.40;99.90
44219;DHT22;29889;52.034;5.570;2022-09-09T02:58:30;21.40;99.90
44219;DHT22;29889;52.034;5.570;2022-09-09T02:59:03;21.40;99.90
44219;DHT22;29889;52.034;5.570;2022-09-09T02:59:34;21.40;99.90
44219;DHT22;29889;52.034;5.570;2022-09-09T03:00:05;21.40;99.90
44219;DHT22;29889;52.034;5.570;2022-09-09T03:00:37;21.40;99.90
44219;DHT22;29889;52.034;5.570;2022-09-09T03:01:09;21.40;99.90
44219;DHT22;29889;52.034;5.570;2022-09-09T03:01:40;21.40;99.90
44219;DHT22;29889;52.034;5.570;2022-09-09T03:02:11;21.40;99.90
44219;DHT22;29889;52.034;5.570;2022-09-09T03:02:43;21.40;99.90
44219;DHT22;29889;52.034;5.570;2022-09-09T03:03:15;21.40;99.90
44219;DHT22;29889;52.034;5.570;2022-09-09T03:03:46;21.40;99.90
44219;DHT22;29889;52.034;5.570;2022-09-09T03:04:17;21.40;99.90
44219;DHT22;29889;52.034;5.570;2022-09-09T03:04:47;21.40;99.90
44219;DHT22;29889;52.034;5.570;2022-09-09T03:05:21;21.40;99.90
44219;DHT22;29889;52.034;5.570;2022-09-09T03:05:52;21.40;99.90
44219;DHT22;29889;52.034;5.570;2022-09-09T03:06:23;21.40;99.90
44219;DHT22;29889;52.034;5.570;2022-09-09T03:06:53;21.40;99.90
44219;DHT22;29889;52.034;5.570;2022-09-09T03:07:24;21.40;99.90
44219;DHT22;29889;52.034;5.570;2022-09-09T03:07:54;21.40;99.90
44219;DHT22;29889;52.034;5.570;2022-09-09T03:08:25;21.40;99.90
44219;DHT22;29889;52.034;5.570;2022-09-09T03:08:57;21.30;99.90
44219;DHT22;29889;52.034;5.570;2022-09-09T03:09:31;21.30;99.90
44219;DHT22;29889;52.034;5.570;2022-09-09T03:10:03;21.30;99.90
44219;DHT22;29889;52.034;5.570;2022-09-09T03:10:34;21.30;99.90
44219;DHT22;29889;52.034;5.570;2022-09-09T03:11:05;21.30;99.90
44219;DHT22;29889;52.034;5.570;2022-09-09T03:11:36;21.30;99.90
44219;DHT22;29889;52.034;5.570;2022-09-09T03:12:06;21.30;99.90
44219;DHT22;29889;52.034;5.570;2022-09-09T03:12:38;21.30;99.90
44219;DHT22;29889;52.034;5.570;2022-09-09T03:13:09;21.30;99.90
44219;DHT22;29889;52.034;5.570;2022-09-09T03:13:40;21.30;99.90
44219;DHT22;29889;52.034;5.570;2022-09-09T03:14:10;21.30;99.90
44219;DHT22;29889;52.034;5.570;2022-09-09T03:14:41;21.30;99.90
44219;DHT22;29889;52.034;5.570;2022-09-09T03:15:13;21.30;99.90
44219;DHT22;29889;52.034;5.570;2022-09-09T03:15:45;21.30;99.90
44219;DHT22;29889;52.034;5.570;2022-09-09T03:16:15;21.30;99.90
44219;DHT22;29889;52.034;5.570;2022-09-09T03:16:46;21.30;99.90
44219;DHT22;29889;52.034;5.570;2022-09-09T03:17:17;21.30;99.90
44219;DHT22;29889;52.034;5.570;2022-09-09T03:17:47;21.30;99.90
44219;DHT22;29889;52.034;5.570;2022-09-09T03:18:18;21.30;99.90
44219;DHT22;29889;52.034;5.570;2022-09-09T03:18:48;21.30;99.90
44219;DHT22;29889;52.034;5.570;2022-09-09T03:19:20;21.30;99.90
44219;DHT22;29889;52.034;5.570;2022-09-09T03:19:51;21.30;99.90
44219;DHT22;29889;52.034;5.570;2022-09-09T03:20:25;21.30;99.90
44219;DHT22;29889;52.034;5.570;2022-09-09T03:20:56;21.20;99.90
44219;DHT22;29889;52.034;5.570;2022-09-09T03:21:27;21.20;99.90
44219;DHT22;29889;52.034;5.570;2022-09-09T03:21:58;21.20;99.90
44219;DHT22;29889;52.034;5.570;2022-09-09T03:22:29;21.20;99.90
44219;DHT22;29889;52.034;5.570;2022-09-09T03:23:00;21.20;99.90
44219;DHT22;29889;52.034;5.570;2022-09-09T03:23:30;21.20;99.90
44219;DHT22;29889;52.034;5.570;2022-09-09T03:24:01;21.20;99.90
44219;DHT22;29889;52.034;5.570;2022-09-09T03:24:33;21.20;99.90
44219;DHT22;29889;52.034;5.570;2022-09-09T03:25:04;21.20;99.90
44219;DHT22;29889;52.034;5.570;2022-09-09T03:25:36;21.20;99.90
44219;DHT22;29889;52.034;5.570;2022-09-09T03:26:06;21.20;99.90
44219;DHT22;29889;52.034;5.570;2022-09-09T03:26:37;21.20;99.90
44219;DHT22;29889;52.034;5.570;2022-09-09T03:27:08;21.20;99.90
44219;DHT22;29889;52.034;5.570;2022-09-09T03:27:38;21.20;99.90
44219;DHT22;29889;52.034;5.570;2022-09-09T03:28:09;21.20;99.90
44219;DHT22;29889;52.034;5.570;2022-09-09T03:28:39;21.20;99.90
44219;DHT22;29889;52.034;5.570;2022-09-09T03:29:11;21.20;99.90
44219;DHT22;29889;52.034;5.570;2022-09-09T03:29:42;21.20;99.90
44219;DHT22;29889;52.034;5.570;2022-09-09T03:30:13;21.20;99.90
44219;DHT22;29889;52.034;5.570;2022-09-09T03:30:44;21.20;99.90
44219;DHT22;29889;52.034;5.570;2022-09-09T03:31:14;21.20;99.90
44219;DHT22;29889;52.034;5.570;2022-09-09T03:31:45;21.20;99.90
44219;DHT22;29889;52.034;5.570;2022-09-09T03:32:15;21.20;99.90
44219;DHT22;29889;52.034;5.570;2022-09-09T03:32:47;21.20;99.90
44219;DHT22;29889;52.034;5.570;2022-09-09T03:33:18;21.20;99.90
44219;DHT22;29889;52.034;5.570;2022-09-09T03:33:48;21.30;99.90
44219;DHT22;29889;52.034;5.570;2022-09-09T03:34:19;21.20;99.90
44219;DHT22;29889;52.034;5.570;2022-09-09T03:34:50;21.20;99.90
44219;DHT22;29889;52.034;5.570;2022-09-09T03:35:20;21.30;99.90
44219;DHT22;29889;52.034;5.570;2022-09-09T03:35:51;21.20;99.90
44219;DHT22;29889;52.034;5.570;2022-09-09T03:36:22;21.20;99.90
44219;DHT22;29889;52.034;5.570;2022-09-09T03:36:52;21.20;99.90
44219;DHT22;29889;52.034;5.570;2022-09-09T03:37:23;21.20;99.90
44219;DHT22;29889;52.034;5.570;2022-09-09T03:37:53;21.20;99.90
44219;DHT22;29889;52.034;5.570;2022-09-09T03:38:26;21.20;99.90
44219;DHT22;29889;52.034;5.570;2022-09-09T03:38:56;21.20;99.90
44219;DHT22;29889;52.034;5.570;2022-09-09T03:39:27;21.20;99.90
44219;DHT22;29889;52.034;5.570;2022-09-09T03:39:59;21.20;99.90
44219;DHT22;29889;52.034;5.570;2022-09-09T03:40:30;21.20;99.90
44219;DHT22;29889;52.034;5.570;2022-09-09T03:41:01;21.20;99.90
44219;DHT22;29889;52.034;5.570;2022-09-09T03:41:32;21.20;99.90
44219;DHT22;29889;52.034;5.570;2022-09-09T03:42:03;21.20;99.90
44219;DHT22;29889;52.034;5.570;2022-09-09T03:42:34;21.20;99.90
44219;DHT22;29889;52.034;5.570;2022-09-09T03:43:07;21.20;99.90
44219;DHT22;29889;52.034;5.570;2022-09-09T03:43:37;21.20;99.90
44219;DHT22;29889;52.034;5.570;2022-09-09T03:44:08;21.20;99.90
44219;DHT22;29889;52.034;5.570;2022-09-09T03:44:38;21.20;99.90
44219;DHT22;29889;52.034;5.570;2022-09-09T03:45:10;21.20;99.90
44219;DHT22;29889;52.034;5.570;2022-09-09T03:45:45;21.20;99.90
44219;DHT22;29889;52.034;5.570;2022-09-09T03:46:18;21.20;99.90
44219;DHT22;29889;52.034;5.570;2022-09-09T03:46:49;21.20;99.90
44219;DHT22;29889;52.034;5.570;2022-09-09T03:47:21;21.20;99.90
44219;DHT22;29889;52.034;5.570;2022-09-09T03:47:52;21.20;99.90
44219;DHT22;29889;52.034;5.570;2022-09-09T03:48:23;21.20;99.90
44219;DHT22;29889;52.034;5.570;2022-09-09T03:48:53;21.20;99.90
44219;DHT22;29889;52.034;5.570;2022-09-09T03:49:24;21.20;99.90
44219;DHT22;29889;52.034;5.570;2022-09-09T03:49:55;21.20;99.90
44219;DHT22;29889;52.034;5.570;2022-09-09T03:50:25;21.20;99.90
44219;DHT22;29889;52.034;5.570;2022-09-09T03:50:56;21.10;99.90
44219;DHT22;29889;52.034;5.570;2022-09-09T03:51:30;21.10;99.90
44219;DHT22;29889;52.034;5.570;2022-09-09T03:52:01;21.10;99.90
44219;DHT22;29889;52.034;5.570;2022-09-09T03:52:35;21.10;99.90
44219;DHT22;29889;52.034;5.570;2022-09-09T03:53:05;21.10;99.90
44219;DHT22;29889;52.034;5.570;2022-09-09T03:53:36;21.10;99.90
44219;DHT22;29889;52.034;5.570;2022-09-09T03:54:08;21.10;99.90
44219;DHT22;29889;52.034;5.570;2022-09-09T03:54:40;21.10;99.90
44219;DHT22;29889;52.034;5.570;2022-09-09T03:55:12;21.10;99.90
44219;DHT22;29889;52.034;5.570;2022-09-09T03:55:45;21.10;99.90
44219;DHT22;29889;52.034;5.570;2022-09-09T03:56:15;21.10;99.90
44219;DHT22;29889;52.034;5.570;2022-09-09T03:56:46;21.10;99.90
44219;DHT22;29889;52.034;5.570;2022-09-09T03:57:17;21.10;99.90
44219;DHT22;29889;52.034;5.570;2022-09-09T03:57:47;21.10;99.90
44219;DHT22;29889;52.034;5.570;2022-09-09T03:58:18;21.10;99.90
44219;DHT22;29889;52.034;5.570;2022-09-09T03:58:49;21.10;99.90
44219;DHT22;29889;52.034;5.570;2022-09-09T03:59:19;21.10;99.90
44219;DHT22;29889;52.034;5.570;2022-09-09T03:59:51;21.10;99.90
44219;DHT22;29889;52.034;5.570;2022-09-09T04:00:22;21.10;99.90
44219;DHT22;29889;52.034;5.570;2022-09-09T04:01:03;21.10;99.90
44219;DHT22;29889;52.034;5.570;2022-09-09T04:01:34;21.00;99.90
44219;DHT22;29889;52.034;5.570;2022-09-09T04:02:05;21.00;99.90
44219;DHT22;29889;52.034;5.570;2022-09-09T04:02:36;21.00;99.90
44219;DHT22;29889;52.034;5.570;2022-09-09T04:03:06;21.00;99.90
44219;DHT22;29889;52.034;5.570;2022-09-09T04:03:37;21.00;99.90
44219;DHT22;29889;52.034;5.570;2022-09-09T04:04:07;21.00;99.90
44219;DHT22;29889;52.034;5.570;2022-09-09T04:04:39;21.00;99.90
44219;DHT22;29889;52.034;5.570;2022-09-09T04:05:09;21.00;99.90
44219;DHT22;29889;52.034;5.570;2022-09-09T04:05:40;21.00;99.90
44219;DHT22;29889;52.034;5.570;2022-09-09T04:06:14;21.00;99.90
44219;DHT22;29889;52.034;5.570;2022-09-09T04:06:45;21.00;99.90
44219;DHT22;29889;52.034;5.570;2022-09-09T04:07:16;21.00;99.90
44219;DHT22;29889;52.034;5.570;2022-09-09T04:07:46;21.00;99.90
44219;DHT22;29889;52.034;5.570;2022-09-09T04:08:18;21.00;99.90
44219;DHT22;29889;52.034;5.570;2022-09-09T04:08:49;21.00;99.90
44219;DHT22;29889;52.034;5.570;2022-09-09T04:09:19;21.00;99.90
44219;DHT22;29889;52.034;5.570;2022-09-09T04:09:50;21.10;99.90
44219;DHT22;29889;52.034;5.570;2022-09-09T04:10:21;21.00;99.90
44219;DHT22;29889;52.034;5.570;2022-09-09T04:10:52;21.00;99.90
44219;DHT22;29889;52.034;5.570;2022-09-09T04:11:24;21.00;99.90
44219;DHT22;29889;52.034;5.570;2022-09-09T04:11:55;21.00;99.90
44219;DHT22;29889;52.034;5.570;2022-09-09T04:12:25;21.00;99.90
44219;DHT22;29889;52.034;5.570;2022-09-09T04:12:56;21.00;99.90
44219;DHT22;29889;52.034;5.570;2022-09-09T04:13:26;21.00;99.90
44219;DHT22;29889;52.034;5.570;2022-09-09T04:13:57;21.00;99.90
44219;DHT22;29889;52.034;5.570;2022-09-09T04:14:27;21.00;99.90